This is the latest recevied weather packets stored in our database for station/object W1CAT. If no packets are shown the sender has not sent any weather packets the latest 10 day(s).
| Time | Temp. | Humidity | Pressure | Rain* | Wind** | Luminosity | Snow |
|---|---|---|---|---|---|---|---|
| 1777584799 | 6.11° C | 81% | - | 6.1 mm | - | - | - |
| 1777584497 | 5° C | 82% | - | 4.32 mm | - | - | - |
| 1777584194 | 4.44° C | 83% | - | 1.27 mm | - | - | - |
| 1777583893 | 3.33° C | 82% | - | 0 mm | - | - | - |
| 1777583589 | 2.78° C | 83% | - | 0 mm | - | - | - |
| 1777583287 | 2.78° C | 83% | - | 0 mm | - | - | - |
| 1777582982 | 2.78° C | 85% | - | 0 mm | - | - | - |
| 1777582680 | 2.78° C | 83% | - | 0 mm | - | - | - |
| 1777582374 | 2.78° C | 82% | - | 0 mm | - | - | - |
| 1777582073 | 3.33° C | 81% | - | 0 mm | - | - | - |
| 1777581768 | 3.33° C | 82% | - | 0 mm | - | - | - |
| 1777581467 | 3.33° C | 83% | - | 0 mm | - | - | - |
| 1777581162 | 3.33° C | 84% | - | 0 mm | - | - | - |
| 1777580862 | 3.89° C | 84% | - | 1.78 mm | - | - | - |
| 1777580557 | 4.44° C | 80% | - | 0 mm | - | - | - |
| 1777580253 | 5° C | 76% | - | 0 mm | - | - | - |
| 1777579950 | 5.56° C | 70% | - | 0 mm | - | - | - |
| 1777579645 | 6.11° C | 70% | - | 0 mm | - | - | - |
| 1777579344 | 6.67° C | 69% | - | 0 mm | - | - | - |
| 1777579039 | 10° C | 56% | - | 0 mm | - | - | - |
| 1777578735 | 10° C | 55% | - | 0 mm | - | - | - |
| 1777578435 | 11.67° C | 53% | - | 0 mm | - | - | - |
| 1777578130 | 11.67° C | 55% | - | 0 mm | - | - | - |
| 1777577826 | 10.56° C | 56% | - | 0 mm | - | - | - |
| 1777577522 | 9.44° C | 55% | - | 0 mm | - | - | - |
* Rain latest hour (hover to see other rain measurements)
** Current wind speed in m/s (hover to see current wind gust speed)